sensor_id;sensor_type;location;lat;lon;timestamp;pressure;altitude;pressure_sealevel;temperature;humidity
77454;BME280;66538;53.150;18.160;2023-05-07T00:01:28;102136.17;;;5.77;83.46
77454;BME280;66538;53.150;18.160;2023-05-07T00:03:54;102133.30;;;5.73;83.86
77454;BME280;66538;53.150;18.160;2023-05-07T00:06:21;102132.73;;;5.71;83.98
77454;BME280;66538;53.150;18.160;2023-05-07T00:08:48;102134.82;;;5.67;83.78
77454;BME280;66538;53.150;18.160;2023-05-07T00:11:14;102137.20;;;5.63;83.93
77454;BME280;66538;53.150;18.160;2023-05-07T00:13:41;102137.65;;;5.57;84.05
77454;BME280;66538;53.150;18.160;2023-05-07T00:16:08;102136.51;;;5.53;84.09
77454;BME280;66538;53.150;18.160;2023-05-07T00:18:34;102136.90;;;5.49;84.05
77454;BME280;66538;53.150;18.160;2023-05-07T00:21:01;102136.77;;;5.45;84.02
77454;BME280;66538;53.150;18.160;2023-05-07T00:23:27;102137.79;;;5.40;84.08
77454;BME280;66538;53.150;18.160;2023-05-07T00:25:54;102140.66;;;5.37;83.79
77454;BME280;66538;53.150;18.160;2023-05-07T00:28:21;102141.48;;;5.34;84.58
77454;BME280;66538;53.150;18.160;2023-05-07T00:30:47;102147.59;;;5.30;83.97
77454;BME280;66538;53.150;18.160;2023-05-07T00:33:14;102147.45;;;5.25;83.83
77454;BME280;66538;53.150;18.160;2023-05-07T00:35:42;102149.46;;;5.19;84.29
77454;BME280;66538;53.150;18.160;2023-05-07T00:38:08;102148.95;;;5.14;84.02
77454;BME280;66538;53.150;18.160;2023-05-07T00:40:35;102154.80;;;5.10;83.97
77454;BME280;66538;53.150;18.160;2023-05-07T00:43:01;102156.38;;;5.05;84.37
77454;BME280;66538;53.150;18.160;2023-05-07T00:45:29;102156.56;;;5.00;84.22
77454;BME280;66538;53.150;18.160;2023-05-07T00:47:57;102160.46;;;4.95;84.21
77454;BME280;66538;53.150;18.160;2023-05-07T00:50:25;102163.15;;;4.88;84.06
77454;BME280;66538;53.150;18.160;2023-05-07T00:52:53;102167.16;;;4.84;84.68
77454;BME280;66538;53.150;18.160;2023-05-07T00:55:21;102172.41;;;4.81;84.58
77454;BME280;66538;53.150;18.160;2023-05-07T00:57:49;102172.29;;;4.77;84.60
77454;BME280;66538;53.150;18.160;2023-05-07T01:00:17;102173.48;;;4.72;84.47
77454;BME280;66538;53.150;18.160;2023-05-07T01:02:44;102173.48;;;4.66;84.95
77454;BME280;66538;53.150;18.160;2023-05-07T01:05:12;102165.61;;;4.59;84.70
77454;BME280;66538;53.150;18.160;2023-05-07T01:07:41;102163.38;;;4.56;84.77
77454;BME280;66538;53.150;18.160;2023-05-07T01:10:09;102166.15;;;4.51;84.39
77454;BME280;66538;53.150;18.160;2023-05-07T01:12:37;102168.89;;;4.46;85.02
77454;BME280;66538;53.150;18.160;2023-05-07T01:15:07;102169.28;;;4.45;85.20
77454;BME280;66538;53.150;18.160;2023-05-07T01:17:53;102166.94;;;4.41;85.11
77454;BME280;66538;53.150;18.160;2023-05-07T01:20:25;102162.59;;;4.35;85.15
77454;BME280;66538;53.150;18.160;2023-05-07T01:22:53;102169.83;;;4.32;85.15
77454;BME280;66538;53.150;18.160;2023-05-07T01:25:20;102165.44;;;4.27;85.24
77454;BME280;66538;53.150;18.160;2023-05-07T01:27:49;102172.71;;;4.22;84.79
77454;BME280;66538;53.150;18.160;2023-05-07T01:30:16;102172.42;;;4.17;85.15
77454;BME280;66538;53.150;18.160;2023-05-07T01:32:52;102174.48;;;4.12;84.68
77454;BME280;66538;53.150;18.160;2023-05-07T01:35:21;102180.39;;;4.08;84.77
77454;BME280;66538;53.150;18.160;2023-05-07T01:37:49;102187.70;;;4.04;84.75
77454;BME280;66538;53.150;18.160;2023-05-07T01:40:16;102185.09;;;4.00;85.08
77454;BME280;66538;53.150;18.160;2023-05-07T01:42:43;102186.72;;;3.94;84.90
77454;BME280;66538;53.150;18.160;2023-05-07T01:45:11;102190.75;;;3.89;84.62
77454;BME280;66538;53.150;18.160;2023-05-07T01:47:38;102186.67;;;3.87;84.82
77454;BME280;66538;53.150;18.160;2023-05-07T01:50:07;102191.86;;;3.84;84.73
77454;BME280;66538;53.150;18.160;2023-05-07T01:52:34;102188.42;;;3.80;85.12
77454;BME280;66538;53.150;18.160;2023-05-07T01:55:01;102187.63;;;3.77;84.97
77454;BME280;66538;53.150;18.160;2023-05-07T01:57:27;102195.44;;;3.74;85.23
77454;BME280;66538;53.150;18.160;2023-05-07T01:59:54;102197.06;;;3.70;84.92
77454;BME280;66538;53.150;18.160;2023-05-07T02:02:21;102195.95;;;3.67;85.51
77454;BME280;66538;53.150;18.160;2023-05-07T02:04:48;102193.38;;;3.66;85.22
77454;BME280;66538;53.150;18.160;2023-05-07T02:07:15;102198.63;;;3.64;85.32
77454;BME280;66538;53.150;18.160;2023-05-07T02:09:42;102200.47;;;3.65;85.95
77454;BME280;66538;53.150;18.160;2023-05-07T02:12:09;102197.00;;;3.66;85.60
77454;BME280;66538;53.150;18.160;2023-05-07T02:14:35;102192.86;;;3.66;86.01
77454;BME280;66538;53.150;18.160;2023-05-07T02:17:02;102193.11;;;3.66;85.66
77454;BME280;66538;53.150;18.160;2023-05-07T02:19:29;102194.84;;;3.65;85.65
77454;BME280;66538;53.150;18.160;2023-05-07T02:21:55;102200.51;;;3.65;85.56
77454;BME280;66538;53.150;18.160;2023-05-07T02:24:22;102203.42;;;3.65;85.63
77454;BME280;66538;53.150;18.160;2023-05-07T02:26:49;102210.23;;;3.63;85.54
77454;BME280;66538;53.150;18.160;2023-05-07T02:29:15;102213.10;;;3.62;85.73
77454;BME280;66538;53.150;18.160;2023-05-07T02:31:42;102212.08;;;3.60;85.64
77454;BME280;66538;53.150;18.160;2023-05-07T02:34:09;102209.66;;;3.58;85.71
77454;BME280;66538;53.150;18.160;2023-05-07T02:36:35;102209.96;;;3.55;85.75
77454;BME280;66538;53.150;18.160;2023-05-07T02:39:06;102204.50;;;3.55;85.74
77454;BME280;66538;53.150;18.160;2023-05-07T02:41:33;102208.59;;;3.55;85.81
77454;BME280;66538;53.150;18.160;2023-05-07T02:44:00;102210.10;;;3.54;86.19
77454;BME280;66538;53.150;18.160;2023-05-07T02:46:27;102212.62;;;3.54;86.01
77454;BME280;66538;53.150;18.160;2023-05-07T02:48:59;102216.99;;;3.54;85.99
77454;BME280;66538;53.150;18.160;2023-05-07T02:51:26;102216.58;;;3.53;86.03
77454;BME280;66538;53.150;18.160;2023-05-07T02:53:54;102221.11;;;3.52;85.97
77454;BME280;66538;53.150;18.160;2023-05-07T02:56:21;102219.71;;;3.49;85.58
77454;BME280;66538;53.150;18.160;2023-05-07T02:58:48;102214.67;;;3.48;85.78
77454;BME280;66538;53.150;18.160;2023-05-07T03:01:15;102214.02;;;3.44;85.91
77454;BME280;66538;53.150;18.160;2023-05-07T03:03:49;102217.91;;;3.42;85.79
77454;BME280;66538;53.150;18.160;2023-05-07T03:06:16;102219.09;;;3.41;85.91
77454;BME280;66538;53.150;18.160;2023-05-07T03:08:43;102220.69;;;3.40;85.86
77454;BME280;66538;53.150;18.160;2023-05-07T03:11:10;102226.57;;;3.38;85.82
77454;BME280;66538;53.150;18.160;2023-05-07T03:13:37;102230.73;;;3.37;85.78
77454;BME280;66538;53.150;18.160;2023-05-07T03:16:03;102232.25;;;3.34;85.67
77454;BME280;66538;53.150;18.160;2023-05-07T03:18:30;102234.14;;;3.33;85.75
77454;BME280;66538;53.150;18.160;2023-05-07T03:20:57;102238.12;;;3.32;85.85
77454;BME280;66538;53.150;18.160;2023-05-07T03:23:23;102238.64;;;3.30;86.03
77454;BME280;66538;53.150;18.160;2023-05-07T03:25:50;102243.69;;;3.29;86.01
77454;BME280;66538;53.150;18.160;2023-05-07T03:28:16;102246.95;;;3.31;86.03
77454;BME280;66538;53.150;18.160;2023-05-07T03:30:50;102250.39;;;3.32;85.90
77454;BME280;66538;53.150;18.160;2023-05-07T03:33:17;102250.17;;;3.34;85.93
77454;BME280;66538;53.150;18.160;2023-05-07T03:35:44;102247.45;;;3.34;85.80
77454;BME280;66538;53.150;18.160;2023-05-07T03:38:10;102250.10;;;3.38;86.01
77454;BME280;66538;53.150;18.160;2023-05-07T03:40:37;102254.89;;;3.41;86.30
77454;BME280;66538;53.150;18.160;2023-05-07T03:43:04;102259.84;;;3.46;86.09
77454;BME280;66538;53.150;18.160;2023-05-07T03:45:31;102258.95;;;3.50;86.19
77454;BME280;66538;53.150;18.160;2023-05-07T03:48:06;102263.02;;;3.55;86.02
77454;BME280;66538;53.150;18.160;2023-05-07T03:50:33;102263.45;;;3.58;86.42
77454;BME280;66538;53.150;18.160;2023-05-07T03:53:00;102261.59;;;3.64;86.34
77454;BME280;66538;53.150;18.160;2023-05-07T03:55:27;102264.08;;;3.71;86.43
77454;BME280;66538;53.150;18.160;2023-05-07T03:57:58;102265.98;;;3.77;86.35
77454;BME280;66538;53.150;18.160;2023-05-07T04:00:25;102270.46;;;3.84;86.39
77454;BME280;66538;53.150;18.160;2023-05-07T04:02:52;102276.67;;;3.92;86.26
77454;BME280;66538;53.150;18.160;2023-05-07T04:05:24;102273.19;;;3.97;86.29
77454;BME280;66538;53.150;18.160;2023-05-07T04:07:53;102273.33;;;4.04;86.47
77454;BME280;66538;53.150;18.160;2023-05-07T04:10:24;102275.88;;;4.11;86.28
77454;BME280;66538;53.150;18.160;2023-05-07T04:12:52;102279.46;;;4.17;86.41
77454;BME280;66538;53.150;18.160;2023-05-07T04:15:20;102284.17;;;4.24;86.07
77454;BME280;66538;53.150;18.160;2023-05-07T04:17:47;102289.76;;;4.30;86.11
77454;BME280;66538;53.150;18.160;2023-05-07T04:20:16;102294.23;;;4.36;85.85
77454;BME280;66538;53.150;18.160;2023-05-07T04:22:43;102301.09;;;4.43;85.51
77454;BME280;66538;53.150;18.160;2023-05-07T04:25:10;102301.34;;;4.49;85.90
77454;BME280;66538;53.150;18.160;2023-05-07T04:27:37;102299.27;;;4.56;85.79
77454;BME280;66538;53.150;18.160;2023-05-07T04:30:05;102299.17;;;4.62;85.56
77454;BME280;66538;53.150;18.160;2023-05-07T04:32:35;102304.52;;;4.68;85.46
77454;BME280;66538;53.150;18.160;2023-05-07T04:35:04;102308.98;;;4.75;85.18
77454;BME280;66538;53.150;18.160;2023-05-07T04:37:34;102309.33;;;4.81;85.26
77454;BME280;66538;53.150;18.160;2023-05-07T04:40:01;102308.52;;;4.87;85.38
77454;BME280;66538;53.150;18.160;2023-05-07T04:42:29;102306.08;;;4.92;85.12
77454;BME280;66538;53.150;18.160;2023-05-07T04:44:56;102311.33;;;5.00;84.88
77454;BME280;66538;53.150;18.160;2023-05-07T04:47:23;102310.96;;;5.06;84.96
77454;BME280;66538;53.150;18.160;2023-05-07T04:49:50;102312.17;;;5.12;84.64
77454;BME280;66538;53.150;18.160;2023-05-07T04:52:17;102318.58;;;5.19;84.69
77454;BME280;66538;53.150;18.160;2023-05-07T04:54:44;102321.73;;;5.25;84.44
77454;BME280;66538;53.150;18.160;2023-05-07T04:57:12;102326.72;;;5.33;84.41
77454;BME280;66538;53.150;18.160;2023-05-07T04:59:39;102323.90;;;5.37;84.39
77454;BME280;66538;53.150;18.160;2023-05-07T05:02:06;102330.08;;;5.44;84.01
77454;BME280;66538;53.150;18.160;2023-05-07T05:04:33;102334.55;;;5.51;83.75
77454;BME280;66538;53.150;18.160;2023-05-07T05:07:00;102329.60;;;5.57;83.75
77454;BME280;66538;53.150;18.160;2023-05-07T05:09:28;102330.23;;;5.62;83.79
77454;BME280;66538;53.150;18.160;2023-05-07T05:11:55;102330.63;;;5.68;83.55
77454;BME280;66538;53.150;18.160;2023-05-07T05:14:22;102336.17;;;5.74;83.63
77454;BME280;66538;53.150;18.160;2023-05-07T05:16:48;102339.75;;;5.80;83.16
77454;BME280;66538;53.150;18.160;2023-05-07T05:19:15;102338.63;;;5.89;82.83
77454;BME280;66538;53.150;18.160;2023-05-07T05:21:44;102343.73;;;5.98;82.87
77454;BME280;66538;53.150;18.160;2023-05-07T05:24:11;102341.79;;;6.06;82.41
77454;BME280;66538;53.150;18.160;2023-05-07T05:26:39;102340.86;;;6.13;82.51
77454;BME280;66538;53.150;18.160;2023-05-07T05:29:05;102342.23;;;6.22;82.32
77454;BME280;66538;53.150;18.160;2023-05-07T05:31:32;102340.89;;;6.29;82.01
77454;BME280;66538;53.150;18.160;2023-05-07T05:34:00;102348.20;;;6.37;81.63
77454;BME280;66538;53.150;18.160;2023-05-07T05:36:26;102349.72;;;6.46;81.62
77454;BME280;66538;53.150;18.160;2023-05-07T05:38:55;102352.06;;;6.54;81.09
77454;BME280;66538;53.150;18.160;2023-05-07T05:41:22;102357.02;;;6.64;80.87
77454;BME280;66538;53.150;18.160;2023-05-07T05:43:48;102355.61;;;6.74;80.76
77454;BME280;66538;53.150;18.160;2023-05-07T05:46:16;102350.08;;;6.83;80.70
77454;BME280;66538;53.150;18.160;2023-05-07T05:48:43;102345.48;;;6.93;80.21
77454;BME280;66538;53.150;18.160;2023-05-07T05:51:11;102348.03;;;7.02;80.56
77454;BME280;66538;53.150;18.160;2023-05-07T05:53:37;102351.21;;;7.11;79.91
77454;BME280;66538;53.150;18.160;2023-05-07T05:56:06;102351.84;;;7.19;79.96
77454;BME280;66538;53.150;18.160;2023-05-07T05:58:34;102351.09;;;7.28;79.60
77454;BME280;66538;53.150;18.160;2023-05-07T06:01:02;102356.23;;;7.37;79.42
77454;BME280;66538;53.150;18.160;2023-05-07T06:03:29;102354.30;;;7.46;79.32
77454;BME280;66538;53.150;18.160;2023-05-07T06:05:58;102353.63;;;7.54;79.30
77454;BME280;66538;53.150;18.160;2023-05-07T06:08:29;102355.90;;;7.64;79.32
77454;BME280;66538;53.150;18.160;2023-05-07T06:10:56;102354.48;;;7.73;78.64
77454;BME280;66538;53.150;18.160;2023-05-07T06:13:23;102357.33;;;7.80;78.76
77454;BME280;66538;53.150;18.160;2023-05-07T06:15:50;102354.27;;;7.91;78.94
77454;BME280;66538;53.150;18.160;2023-05-07T06:18:17;102356.53;;;8.02;78.31
77454;BME280;66538;53.150;18.160;2023-05-07T06:20:43;102360.59;;;8.10;78.28
77454;BME280;66538;53.150;18.160;2023-05-07T06:23:14;102359.61;;;8.18;77.83
77454;BME280;66538;53.150;18.160;2023-05-07T06:25:41;102356.23;;;8.27;77.62
77454;BME280;66538;53.150;18.160;2023-05-07T06:28:08;102354.21;;;8.36;77.58
77454;BME280;66538;53.150;18.160;2023-05-07T06:30:39;102363.09;;;8.45;77.14
77454;BME280;66538;53.150;18.160;2023-05-07T06:33:07;102361.05;;;8.53;77.16
77454;BME280;66538;53.150;18.160;2023-05-07T06:35:33;102358.26;;;8.61;76.72
77454;BME280;66538;53.150;18.160;2023-05-07T06:38:00;102359.22;;;8.69;76.01
77454;BME280;66538;53.150;18.160;2023-05-07T06:40:28;102355.54;;;8.78;74.56
77454;BME280;66538;53.150;18.160;2023-05-07T06:42:55;102352.52;;;8.88;74.48
77454;BME280;66538;53.150;18.160;2023-05-07T06:45:28;102356.83;;;9.01;74.42
77454;BME280;66538;53.150;18.160;2023-05-07T06:47:55;102360.12;;;9.10;74.10
77454;BME280;66538;53.150;18.160;2023-05-07T06:50:22;102362.27;;;9.20;74.08
77454;BME280;66538;53.150;18.160;2023-05-07T06:52:49;102365.35;;;9.31;73.29
77454;BME280;66538;53.150;18.160;2023-05-07T06:55:16;102365.17;;;9.42;72.92
77454;BME280;66538;53.150;18.160;2023-05-07T06:57:43;102363.37;;;9.55;72.19
77454;BME280;66538;53.150;18.160;2023-05-07T07:00:10;102369.57;;;9.65;71.48
77454;BME280;66538;53.150;18.160;2023-05-07T07:02:44;102370.80;;;9.76;71.42
77454;BME280;66538;53.150;18.160;2023-05-07T07:05:11;102374.38;;;9.85;71.15
77454;BME280;66538;53.150;18.160;2023-05-07T07:07:38;102381.67;;;9.94;70.49
77454;BME280;66538;53.150;18.160;2023-05-07T07:10:06;102381.34;;;10.03;69.23
77454;BME280;66538;53.150;18.160;2023-05-07T07:12:32;102386.04;;;10.10;68.60
77454;BME280;66538;53.150;18.160;2023-05-07T07:14:59;102386.09;;;10.18;68.06
77454;BME280;66538;53.150;18.160;2023-05-07T07:17:26;102385.78;;;10.24;67.70
77454;BME280;66538;53.150;18.160;2023-05-07T07:19:55;102389.66;;;10.31;67.55
77454;BME280;66538;53.150;18.160;2023-05-07T07:22:21;102391.25;;;10.38;67.39
77454;BME280;66538;53.150;18.160;2023-05-07T07:24:48;102391.27;;;10.46;67.41
77454;BME280;66538;53.150;18.160;2023-05-07T07:27:16;102390.98;;;10.53;65.68
77454;BME280;66538;53.150;18.160;2023-05-07T07:29:42;102392.06;;;10.60;66.28
77454;BME280;66538;53.150;18.160;2023-05-07T07:32:09;102393.96;;;10.68;64.94
77454;BME280;66538;53.150;18.160;2023-05-07T07:34:36;102391.42;;;10.74;63.52
77454;BME280;66538;53.150;18.160;2023-05-07T07:37:02;102386.86;;;10.80;63.64
77454;BME280;66538;53.150;18.160;2023-05-07T07:39:33;102386.28;;;10.86;63.00
77454;BME280;66538;53.150;18.160;2023-05-07T07:42:00;102380.98;;;10.89;61.53
77454;BME280;66538;53.150;18.160;2023-05-07T07:44:28;102379.70;;;10.94;63.03
77454;BME280;66538;53.150;18.160;2023-05-07T07:46:58;102379.95;;;11.01;62.87
77454;BME280;66538;53.150;18.160;2023-05-07T07:49:26;102385.20;;;11.10;61.31
77454;BME280;66538;53.150;18.160;2023-05-07T07:51:53;102388.92;;;11.17;60.46
77454;BME280;66538;53.150;18.160;2023-05-07T07:54:19;102385.18;;;11.26;61.78
77454;BME280;66538;53.150;18.160;2023-05-07T07:56:46;102385.56;;;11.39;62.37
77454;BME280;66538;53.150;18.160;2023-05-07T07:59:13;102382.77;;;11.49;59.82
77454;BME280;66538;53.150;18.160;2023-05-07T08:01:44;102386.60;;;11.56;59.74
77454;BME280;66538;53.150;18.160;2023-05-07T08:04:11;102385.46;;;11.62;58.51
77454;BME280;66538;53.150;18.160;2023-05-07T08:06:40;102385.38;;;11.68;58.88
77454;BME280;66538;53.150;18.160;2023-05-07T08:09:07;102388.52;;;11.75;59.17
77454;BME280;66538;53.150;18.160;2023-05-07T08:11:34;102386.04;;;11.82;57.19
77454;BME280;66538;53.150;18.160;2023-05-07T08:14:01;102391.61;;;11.87;58.20
77454;BME280;66538;53.150;18.160;2023-05-07T08:16:28;102390.00;;;11.97;58.06
77454;BME280;66538;53.150;18.160;2023-05-07T08:18:55;102388.47;;;12.01;55.43
77454;BME280;66538;53.150;18.160;2023-05-07T08:21:23;102392.81;;;12.06;56.04
77454;BME280;66538;53.150;18.160;2023-05-07T08:23:49;102388.08;;;12.13;56.84
77454;BME280;66538;53.150;18.160;2023-05-07T08:26:17;102395.46;;;12.23;57.24
77454;BME280;66538;53.150;18.160;2023-05-07T08:28:44;102394.27;;;12.34;57.74
77454;BME280;66538;53.150;18.160;2023-05-07T08:31:10;102397.41;;;12.45;56.35
77454;BME280;66538;53.150;18.160;2023-05-07T08:33:39;102394.79;;;12.54;57.26
77454;BME280;66538;53.150;18.160;2023-05-07T08:36:05;102395.97;;;12.66;56.61
77454;BME280;66538;53.150;18.160;2023-05-07T08:38:33;102399.13;;;12.76;56.10
77454;BME280;66538;53.150;18.160;2023-05-07T08:40:59;102396.44;;;12.83;55.94
77454;BME280;66538;53.150;18.160;2023-05-07T08:43:27;102399.36;;;12.87;53.22
77454;BME280;66538;53.150;18.160;2023-05-07T08:45:55;102401.11;;;12.93;54.80
77454;BME280;66538;53.150;18.160;2023-05-07T08:48:29;102408.09;;;13.03;54.79
77454;BME280;66538;53.150;18.160;2023-05-07T08:51:05;102411.91;;;13.14;54.21
77454;BME280;66538;53.150;18.160;2023-05-07T08:53:32;102408.27;;;13.23;53.81
77454;BME280;66538;53.150;18.160;2023-05-07T08:56:00;102409.37;;;13.37;54.06
77454;BME280;66538;53.150;18.160;2023-05-07T08:58:28;102406.20;;;13.46;52.81
77454;BME280;66538;53.150;18.160;2023-05-07T09:00:55;102404.55;;;13.48;50.72
77454;BME280;66538;53.150;18.160;2023-05-07T09:03:22;102404.67;;;13.43;49.80
77454;BME280;66538;53.150;18.160;2023-05-07T09:05:50;102412.88;;;13.47;51.49
77454;BME280;66538;53.150;18.160;2023-05-07T09:08:17;102415.50;;;13.57;51.81
77454;BME280;66538;53.150;18.160;2023-05-07T09:10:47;102417.55;;;13.64;51.98
77454;BME280;66538;53.150;18.160;2023-05-07T09:13:15;102419.21;;;13.73;51.12
77454;BME280;66538;53.150;18.160;2023-05-07T09:15:42;102413.52;;;13.82;51.76
77454;BME280;66538;53.150;18.160;2023-05-07T09:18:09;102412.16;;;13.92;51.86
77454;BME280;66538;53.150;18.160;2023-05-07T09:20:37;102410.67;;;14.02;51.28
77454;BME280;66538;53.150;18.160;2023-05-07T09:23:04;102407.02;;;14.06;49.87
77454;BME280;66538;53.150;18.160;2023-05-07T09:25:32;102410.10;;;14.11;51.56
77454;BME280;66538;53.150;18.160;2023-05-07T09:28:04;102410.27;;;14.19;50.97
77454;BME280;66538;53.150;18.160;2023-05-07T09:30:32;102412.38;;;14.27;51.16
77454;BME280;66538;53.150;18.160;2023-05-07T09:33:00;102407.77;;;14.36;50.10
77454;BME280;66538;53.150;18.160;2023-05-07T09:35:27;102408.95;;;14.45;50.49
77454;BME280;66538;53.150;18.160;2023-05-07T09:37:59;102408.80;;;14.49;49.14
77454;BME280;66538;53.150;18.160;2023-05-07T09:40:28;102411.13;;;14.47;48.41
77454;BME280;66538;53.150;18.160;2023-05-07T09:43:08;102411.91;;;14.45;49.42
77454;BME280;66538;53.150;18.160;2023-05-07T09:45:36;102416.30;;;14.54;50.41
77454;BME280;66538;53.150;18.160;2023-05-07T09:48:05;102419.05;;;14.64;49.85
77454;BME280;66538;53.150;18.160;2023-05-07T09:50:35;102416.48;;;14.72;50.06
77454;BME280;66538;53.150;18.160;2023-05-07T09:53:03;102417.41;;;14.86;49.59
77454;BME280;66538;53.150;18.160;2023-05-07T09:55:31;102411.77;;;14.91;47.37
77454;BME280;66538;53.150;18.160;2023-05-07T09:57:58;102414.21;;;14.85;46.43
77454;BME280;66538;53.150;18.160;2023-05-07T10:00:27;102414.56;;;14.77;48.05
77454;BME280;66538;53.150;18.160;2023-05-07T10:02:59;102421.20;;;14.82;47.44
77454;BME280;66538;53.150;18.160;2023-05-07T10:05:34;102422.86;;;14.89;48.80
77454;BME280;66538;53.150;18.160;2023-05-07T10:08:02;102426.69;;;14.99;47.71
77454;BME280;66538;53.150;18.160;2023-05-07T10:10:32;102429.73;;;15.07;48.18
77454;BME280;66538;53.150;18.160;2023-05-07T10:13:01;102435.08;;;15.11;47.76
77454;BME280;66538;53.150;18.160;2023-05-07T10:15:32;102431.95;;;15.26;47.24
77454;BME280;66538;53.150;18.160;2023-05-07T10:17:59;102429.67;;;15.40;47.74
77454;BME280;66538;53.150;18.160;2023-05-07T10:20:27;102426.97;;;15.55;47.68
77454;BME280;66538;53.150;18.160;2023-05-07T10:22:55;102430.52;;;15.60;47.16
77454;BME280;66538;53.150;18.160;2023-05-07T10:25:31;102422.09;;;15.67;45.31
77454;BME280;66538;53.150;18.160;2023-05-07T10:28:06;102428.01;;;15.49;45.47
77454;BME280;66538;53.150;18.160;2023-05-07T10:33:35;102429.56;;;15.58;44.77
77454;BME280;66538;53.150;18.160;2023-05-07T10:36:05;102427.16;;;15.50;44.69
77454;BME280;66538;53.150;18.160;2023-05-07T10:38:33;102426.47;;;15.48;43.62
77454;BME280;66538;53.150;18.160;2023-05-07T10:41:01;102429.06;;;15.35;44.82
77454;BME280;66538;53.150;18.160;2023-05-07T10:43:43;102428.90;;;15.31;44.93
77454;BME280;66538;53.150;18.160;2023-05-07T10:46:16;102419.98;;;15.57;44.93
77454;BME280;66538;53.150;18.160;2023-05-07T10:51:35;102418.57;;;16.32;46.07
77454;BME280;66538;53.150;18.160;2023-05-07T10:56:41;102417.73;;;16.62;43.20
77454;BME280;66538;53.150;18.160;2023-05-07T11:02:04;102417.26;;;16.73;42.71
77454;BME280;66538;53.150;18.160;2023-05-07T11:04:37;102415.95;;;16.62;42.24
77454;BME280;66538;53.150;18.160;2023-05-07T11:07:27;102415.95;;;16.49;43.17
77454;BME280;66538;53.150;18.160;2023-05-07T11:09:59;102415.61;;;16.61;42.81
77454;BME280;66538;53.150;18.160;2023-05-07T11:12:51;102420.48;;;16.58;42.34
77454;BME280;66538;53.150;18.160;2023-05-07T11:15:44;102420.21;;;16.71;43.08
77454;BME280;66538;53.150;18.160;2023-05-07T11:18:20;102422.80;;;16.87;41.73
77454;BME280;66538;53.150;18.160;2023-05-07T11:26:16;102424.48;;;17.21;41.32
77454;BME280;66538;53.150;18.160;2023-05-07T11:28:44;102426.24;;;17.28;39.10
77454;BME280;66538;53.150;18.160;2023-05-07T11:31:11;102421.21;;;17.32;39.66
77454;BME280;66538;53.150;18.160;2023-05-07T11:33:38;102424.44;;;17.45;39.89
77454;BME280;66538;53.150;18.160;2023-05-07T11:36:08;102423.80;;;17.47;38.92
77454;BME280;66538;53.150;18.160;2023-05-07T11:38:38;102420.56;;;17.36;39.82
77454;BME280;66538;53.150;18.160;2023-05-07T11:41:05;102415.75;;;17.18;39.41
77454;BME280;66538;53.150;18.160;2023-05-07T11:43:33;102415.48;;;16.95;38.57
77454;BME280;66538;53.150;18.160;2023-05-07T11:46:09;102413.16;;;16.79;38.22
77454;BME280;66538;53.150;18.160;2023-05-07T11:48:36;102412.95;;;16.93;39.07
77454;BME280;66538;53.150;18.160;2023-05-07T11:51:05;102420.85;;;17.21;38.99
77454;BME280;66538;53.150;18.160;2023-05-07T11:53:41;102423.23;;;17.47;38.50
77454;BME280;66538;53.150;18.160;2023-05-07T11:56:13;102422.09;;;17.56;38.09
77454;BME280;66538;53.150;18.160;2023-05-07T11:58:41;102421.48;;;17.66;38.57
77454;BME280;66538;53.150;18.160;2023-05-07T12:01:09;102424.08;;;17.80;38.15
77454;BME280;66538;53.150;18.160;2023-05-07T12:03:37;102424.77;;;17.91;38.11
77454;BME280;66538;53.150;18.160;2023-05-07T12:06:09;102425.36;;;18.10;36.79
77454;BME280;66538;53.150;18.160;2023-05-07T12:08:40;102425.41;;;18.18;37.04
77454;BME280;66538;53.150;18.160;2023-05-07T12:11:09;102423.54;;;18.15;36.46
77454;BME280;66538;53.150;18.160;2023-05-07T12:13:37;102423.90;;;18.29;36.63
77454;BME280;66538;53.150;18.160;2023-05-07T12:16:05;102427.14;;;18.37;37.11
77454;BME280;66538;53.150;18.160;2023-05-07T12:18:36;102422.85;;;18.60;36.29
77454;BME280;66538;53.150;18.160;2023-05-07T12:21:04;102422.22;;;18.77;35.70
77454;BME280;66538;53.150;18.160;2023-05-07T12:23:31;102424.77;;;19.08;35.31
77454;BME280;66538;53.150;18.160;2023-05-07T12:25:59;102426.16;;;19.23;36.14
77454;BME280;66538;53.150;18.160;2023-05-07T12:28:26;102424.98;;;19.46;35.43
77454;BME280;66538;53.150;18.160;2023-05-07T12:30:52;102423.40;;;19.66;34.83
77454;BME280;66538;53.150;18.160;2023-05-07T12:33:24;102426.02;;;19.55;34.55
77454;BME280;66538;53.150;18.160;2023-05-07T12:35:53;102425.69;;;19.40;34.00
77454;BME280;66538;53.150;18.160;2023-05-07T12:38:20;102429.70;;;19.22;34.29
77454;BME280;66538;53.150;18.160;2023-05-07T12:40:49;102427.79;;;18.99;33.92
77454;BME280;66538;53.150;18.160;2023-05-07T12:43:19;102429.48;;;19.09;34.28
77454;BME280;66538;53.150;18.160;2023-05-07T12:45:47;102425.23;;;19.35;33.98
77454;BME280;66538;53.150;18.160;2023-05-07T12:48:14;102426.58;;;19.54;34.31
77454;BME280;66538;53.150;18.160;2023-05-07T12:50:41;102420.55;;;19.87;34.44
77454;BME280;66538;53.150;18.160;2023-05-07T12:53:11;102416.10;;;20.29;33.36
77454;BME280;66538;53.150;18.160;2023-05-07T12:55:43;102413.64;;;20.60;31.37
77454;BME280;66538;53.150;18.160;2023-05-07T12:58:32;102415.36;;;21.13;31.77
77454;BME280;66538;53.150;18.160;2023-05-07T13:01:03;102415.48;;;23.11;30.21
77454;BME280;66538;53.150;18.160;2023-05-07T13:03:35;102410.42;;;24.83;28.64
77454;BME280;66538;53.150;18.160;2023-05-07T13:06:03;102402.89;;;26.16;26.45
77454;BME280;66538;53.150;18.160;2023-05-07T13:10:59;102397.59;;;28.00;23.63